»·PEaware :: N46299 L52-L88

N46299 :: L52-L88

FLIGHT INFORMATION

Flight Status: Arrived
Operator: Privately registered:
United States
More flights under this callsign
Pilot: Victor C. (32144)
Aircraft: CESSNA 172 SKYHAWK
(C172)
More flights by this aircraft type
Origin: L52 Oceano Co
United States
Destination: L88 New Cuyama
United States
More flights between these airports :: More routes between these airports
Route: L52 DCT L88
File this flight plan on PilotEdge
Remarks:
Altitude:
(Current/Filed)
6,000ft
Speed:
(Current/Filed)
120kts
Departed: 26-Oct-20 07:29 AM
Arrived: 26-Oct-20 08:11 AM
Distance/Time
Traveled:
47nm/0:42
Distance/Time
To Go:
Arrived

Flight Plot

Page will automatically refresh every two minutes.


Map Options




Map Legend


Flown Route
Filed Route
Departure Airport
Arrival Airport
Navaid (VOR, NDB)
Fix

Horizontal Profiles

Position Reports

Time Latitude Longitude Heading Altitude Ground
Speed
26-Oct-20 07:18 35.103314 -120.624562 213 17ft 0kts
26-Oct-20 07:19 35.103314 -120.624562 213 17ft 0kts
26-Oct-20 07:20 35.103314 -120.624562 213 17ft 0kts
26-Oct-20 07:21 35.103314 -120.624562 213 17ft 0kts
26-Oct-20 07:22 35.103314 -120.624562 213 17ft 0kts
26-Oct-20 07:23 35.103314 -120.624562 213 17ft 0kts
26-Oct-20 07:24 35.103369 -120.624868 304 17ft 4kts
26-Oct-20 07:25 35.103512 -120.625227 268 17ft 0kts
26-Oct-20 07:26 35.103512 -120.625227 268 17ft 0kts
26-Oct-20 07:27 35.103415 -120.625373 204 17ft 5kts
26-Oct-20 07:28 35.095509 -120.611607 121 382ft 84kts
26-Oct-20 07:29 35.080606 -120.618722 281 1338ft 99kts
26-Oct-20 07:30 35.067977 -120.624154 81 2323ft 90kts
26-Oct-20 07:31 35.086376 -120.609420 17 3294ft 86kts
26-Oct-20 07:32 35.105415 -120.596529 92 4177ft 91kts
26-Oct-20 07:33 35.094983 -120.568009 112 5021ft 94kts
26-Oct-20 07:34 35.086874 -120.537467 100 5812ft 96kts
26-Oct-20 07:35 35.085757 -120.504463 91 6056ft 100kts
26-Oct-20 07:36 35.081758 -120.472213 104 6047ft 93kts
26-Oct-20 07:37 35.075570 -120.442111 98 6050ft 90kts
26-Oct-20 07:38 35.071601 -120.411857 97 6050ft 90kts
26-Oct-20 07:39 35.067707 -120.381686 97 6050ft 89kts
26-Oct-20 07:40 35.063905 -120.351520 97 6050ft 89kts
26-Oct-20 07:41 35.060171 -120.321387 98 6052ft 89kts
26-Oct-20 07:42 35.056470 -120.291064 97 6052ft 90kts
26-Oct-20 07:43 35.051711 -120.260890 101 6051ft 90kts
26-Oct-20 07:44 35.046319 -120.230851 101 6051ft 90kts
26-Oct-20 07:45 35.046979 -120.201661 56 5630ft 99kts
26-Oct-20 07:46 35.066168 -120.175520 53 4359ft 101kts
26-Oct-20 07:47 35.082870 -120.149471 48 3164ft 99kts
26-Oct-20 07:48 35.098068 -120.122493 53 2421ft 86kts
26-Oct-20 07:49 35.109429 -120.094742 91 2478ft 96kts
26-Oct-20 07:50 35.101016 -120.065595 117 2501ft 89kts
26-Oct-20 07:51 35.090968 -120.038298 116 2849ft 89kts
26-Oct-20 07:52 35.077164 -120.012006 123 3202ft 92kts
26-Oct-20 07:53 35.066372 -119.984203 96 3483ft 89kts
26-Oct-20 07:54 35.059280 -119.954487 100 3755ft 92kts
26-Oct-20 07:55 35.046220 -119.926436 115 3973ft 100kts
26-Oct-20 07:56 35.032297 -119.896067 107 4141ft 97kts
26-Oct-20 07:57 35.018333 -119.867321 147 4265ft 107kts
26-Oct-20 07:58 34.991997 -119.851288 132 4129ft 102kts
26-Oct-20 07:59 34.969554 -119.830522 145 3650ft 97kts
26-Oct-20 08:00 34.949875 -119.810052 127 3416ft 90kts
26-Oct-20 08:01 34.932594 -119.788657 135 3562ft 89kts
26-Oct-20 08:02 34.915577 -119.766771 122 3666ft 92kts
26-Oct-20 08:03 34.903155 -119.739418 123 3717ft 99kts
26-Oct-20 08:04 34.891988 -119.710651 105 3821ft 94kts
26-Oct-20 08:05 34.889660 -119.679874 55 3799ft 95kts
26-Oct-20 08:06 34.913329 -119.674326 327 3332ft 90kts
26-Oct-20 08:07 34.926150 -119.696681 285 2833ft 72kts
26-Oct-20 08:08 34.936488 -119.718086 338 2727ft 82kts
26-Oct-20 08:09 34.945211 -119.699320 102 2447ft 78kts
26-Oct-20 08:10 34.937775 -119.680379 116 2206ft 8kts
26-Oct-20 08:11 34.938702 -119.682487 297 2206ft 22kts
26-Oct-20 08:12 34.941252 -119.688770 295 2206ft 16kts
26-Oct-20 08:13 34.942785 -119.690533 191 2206ft 7kts
26-Oct-20 08:14 34.942662 -119.690589 205 2206ft 0kts
26-Oct-20 08:15 34.942662 -119.690589 205 2206ft 0kts
26-Oct-20 08:16 34.942662 -119.690589 205 2206ft 0kts
26-Oct-20 08:18 34.942662 -119.690589 205 2206ft 0kts
26-Oct-20 08:19 34.942662 -119.690588 205 2206ft 0kts

Navigation Log

Ident Type
Flight plan parsing failed, navigation log unavailable